sensor_id;sensor_type;location;lat;lon;timestamp;P1;durP1;ratioP1;P2;durP2;ratioP2
78298;SDS011;67556;55.656;12.590;2023-03-01T00:02:14;18.85;;;11.52;;
78298;SDS011;67556;55.656;12.590;2023-03-01T00:04:41;18.33;;;12.02;;
78298;SDS011;67556;55.656;12.590;2023-03-01T00:07:09;17.92;;;11.38;;
78298;SDS011;67556;55.656;12.590;2023-03-01T00:09:37;15.30;;;11.23;;
78298;SDS011;67556;55.656;12.590;2023-03-01T00:12:05;16.83;;;10.10;;
78298;SDS011;67556;55.656;12.590;2023-03-01T00:14:32;14.88;;;10.60;;
78298;SDS011;67556;55.656;12.590;2023-03-01T00:16:59;16.77;;;10.13;;
78298;SDS011;67556;55.656;12.590;2023-03-01T00:19:27;18.85;;;10.48;;
78298;SDS011;67556;55.656;12.590;2023-03-01T00:21:53;14.55;;;10.43;;
78298;SDS011;67556;55.656;12.590;2023-03-01T00:24:21;16.23;;;10.50;;
78298;SDS011;67556;55.656;12.590;2023-03-01T00:26:48;15.20;;;10.05;;
78298;SDS011;67556;55.656;12.590;2023-03-01T00:29:14;14.65;;;10.77;;
78298;SDS011;67556;55.656;12.590;2023-03-01T00:31:41;16.33;;;11.43;;
78298;SDS011;67556;55.656;12.590;2023-03-01T00:34:08;17.98;;;11.68;;
78298;SDS011;67556;55.656;12.590;2023-03-01T00:36:36;14.95;;;10.27;;
78298;SDS011;67556;55.656;12.590;2023-03-01T00:39:03;14.88;;;9.50;;
78298;SDS011;67556;55.656;12.590;2023-03-01T00:41:32;13.65;;;9.85;;
78298;SDS011;67556;55.656;12.590;2023-03-01T00:43:59;17.88;;;10.68;;
78298;SDS011;67556;55.656;12.590;2023-03-01T00:46:26;16.27;;;10.38;;
78298;SDS011;67556;55.656;12.590;2023-03-01T00:48:55;15.05;;;9.90;;
78298;SDS011;67556;55.656;12.590;2023-03-01T00:51:22;18.77;;;11.10;;
78298;SDS011;67556;55.656;12.590;2023-03-01T00:53:50;14.85;;;10.73;;
78298;SDS011;67556;55.656;12.590;2023-03-01T00:56:18;16.65;;;11.02;;
78298;SDS011;67556;55.656;12.590;2023-03-01T00:58:46;16.98;;;10.50;;
78298;SDS011;67556;55.656;12.590;2023-03-01T01:01:13;15.88;;;10.40;;
78298;SDS011;67556;55.656;12.590;2023-03-01T01:03:44;16.42;;;10.70;;
78298;SDS011;67556;55.656;12.590;2023-03-01T01:06:15;16.80;;;11.05;;
78298;SDS011;67556;55.656;12.590;2023-03-01T01:08:42;18.63;;;11.93;;
78298;SDS011;67556;55.656;12.590;2023-03-01T01:11:09;16.90;;;11.15;;
78298;SDS011;67556;55.656;12.590;2023-03-01T01:13:36;18.42;;;11.23;;
78298;SDS011;67556;55.656;12.590;2023-03-01T01:16:05;18.17;;;11.15;;
78298;SDS011;67556;55.656;12.590;2023-03-01T01:18:32;16.65;;;10.90;;
78298;SDS011;67556;55.656;12.590;2023-03-01T01:21:02;15.85;;;10.57;;
78298;SDS011;67556;55.656;12.590;2023-03-01T01:23:31;16.05;;;11.27;;
78298;SDS011;67556;55.656;12.590;2023-03-01T01:26:02;20.88;;;12.68;;
78298;SDS011;67556;55.656;12.590;2023-03-01T01:28:29;18.08;;;11.40;;
78298;SDS011;67556;55.656;12.590;2023-03-01T01:30:58;19.08;;;11.98;;
78298;SDS011;67556;55.656;12.590;2023-03-01T01:33:27;19.30;;;11.48;;
78298;SDS011;67556;55.656;12.590;2023-03-01T01:35:54;20.25;;;12.13;;
78298;SDS011;67556;55.656;12.590;2023-03-01T01:38:21;23.02;;;13.20;;
78298;SDS011;67556;55.656;12.590;2023-03-01T01:40:48;19.23;;;12.70;;
78298;SDS011;67556;55.656;12.590;2023-03-01T01:43:17;20.00;;;11.30;;
78298;SDS011;67556;55.656;12.590;2023-03-01T01:45:47;20.00;;;11.77;;
78298;SDS011;67556;55.656;12.590;2023-03-01T01:48:16;19.15;;;12.85;;
78298;SDS011;67556;55.656;12.590;2023-03-01T01:50:48;18.33;;;11.98;;
78298;SDS011;67556;55.656;12.590;2023-03-01T01:53:19;19.70;;;12.27;;
78298;SDS011;67556;55.656;12.590;2023-03-01T01:55:47;21.02;;;12.60;;
78298;SDS011;67556;55.656;12.590;2023-03-01T01:58:18;19.88;;;11.13;;
78298;SDS011;67556;55.656;12.590;2023-03-01T02:00:47;23.33;;;13.35;;
78298;SDS011;67556;55.656;12.590;2023-03-01T02:03:15;21.65;;;13.80;;
78298;SDS011;67556;55.656;12.590;2023-03-01T02:05:46;18.60;;;11.57;;
78298;SDS011;67556;55.656;12.590;2023-03-01T02:08:18;24.23;;;12.85;;
78298;SDS011;67556;55.656;12.590;2023-03-01T02:10:47;22.17;;;13.95;;
78298;SDS011;67556;55.656;12.590;2023-03-01T02:13:15;24.70;;;14.07;;
78298;SDS011;67556;55.656;12.590;2023-03-01T02:15:42;23.27;;;13.63;;
78298;SDS011;67556;55.656;12.590;2023-03-01T02:18:10;24.02;;;13.75;;
78298;SDS011;67556;55.656;12.590;2023-03-01T02:20:40;23.50;;;13.65;;
78298;SDS011;67556;55.656;12.590;2023-03-01T02:23:18;22.92;;;13.68;;
78298;SDS011;67556;55.656;12.590;2023-03-01T02:25:46;23.63;;;13.75;;
78298;SDS011;67556;55.656;12.590;2023-03-01T02:33:48;22.65;;;13.13;;
78298;SDS011;67556;55.656;12.590;2023-03-01T02:36:15;23.50;;;13.55;;
78298;SDS011;67556;55.656;12.590;2023-03-01T02:38:45;23.15;;;13.63;;
78298;SDS011;67556;55.656;12.590;2023-03-01T02:41:13;22.17;;;13.30;;
78298;SDS011;67556;55.656;12.590;2023-03-01T02:43:44;26.17;;;14.13;;
78298;SDS011;67556;55.656;12.590;2023-03-01T02:46:14;23.27;;;14.35;;
78298;SDS011;67556;55.656;12.590;2023-03-01T02:48:44;21.02;;;12.18;;
78298;SDS011;67556;55.656;12.590;2023-03-01T02:51:19;25.42;;;14.45;;
78298;SDS011;67556;55.656;12.590;2023-03-01T02:54:10;21.08;;;13.63;;
78298;SDS011;67556;55.656;12.590;2023-03-01T02:56:42;21.15;;;12.95;;
78298;SDS011;67556;55.656;12.590;2023-03-01T02:59:14;21.75;;;13.10;;
78298;SDS011;67556;55.656;12.590;2023-03-01T03:01:42;23.38;;;14.05;;
78298;SDS011;67556;55.656;12.590;2023-03-01T03:04:10;24.13;;;13.95;;
78298;SDS011;67556;55.656;12.590;2023-03-01T03:06:41;19.88;;;13.00;;
78298;SDS011;67556;55.656;12.590;2023-03-01T03:09:08;23.90;;;14.75;;
78298;SDS011;67556;55.656;12.590;2023-03-01T03:11:34;21.10;;;13.05;;
78298;SDS011;67556;55.656;12.590;2023-03-01T03:14:02;24.92;;;14.68;;
78298;SDS011;67556;55.656;12.590;2023-03-01T03:16:31;21.92;;;13.40;;
78298;SDS011;67556;55.656;12.590;2023-03-01T03:18:57;23.52;;;14.52;;
78298;SDS011;67556;55.656;12.590;2023-03-01T03:21:30;20.30;;;13.13;;
78298;SDS011;67556;55.656;12.590;2023-03-01T03:23:56;21.35;;;13.02;;
78298;SDS011;67556;55.656;12.590;2023-03-01T03:26:23;21.08;;;12.93;;
78298;SDS011;67556;55.656;12.590;2023-03-01T03:28:49;22.42;;;14.25;;
78298;SDS011;67556;55.656;12.590;2023-03-01T03:31:16;22.80;;;13.75;;
78298;SDS011;67556;55.656;12.590;2023-03-01T03:33:44;22.33;;;14.05;;
78298;SDS011;67556;55.656;12.590;2023-03-01T03:36:14;23.08;;;13.85;;
78298;SDS011;67556;55.656;12.590;2023-03-01T03:38:42;23.27;;;14.00;;
78298;SDS011;67556;55.656;12.590;2023-03-01T03:41:09;25.15;;;14.77;;
78298;SDS011;67556;55.656;12.590;2023-03-01T03:43:36;26.75;;;15.75;;
78298;SDS011;67556;55.656;12.590;2023-03-01T03:46:04;24.13;;;14.32;;
78298;SDS011;67556;55.656;12.590;2023-03-01T03:48:32;24.15;;;13.55;;
78298;SDS011;67556;55.656;12.590;2023-03-01T03:51:01;25.00;;;13.93;;
78298;SDS011;67556;55.656;12.590;2023-03-01T03:53:30;22.05;;;14.00;;
78298;SDS011;67556;55.656;12.590;2023-03-01T03:55:58;27.13;;;14.20;;
78298;SDS011;67556;55.656;12.590;2023-03-01T03:58:24;25.45;;;13.75;;
78298;SDS011;67556;55.656;12.590;2023-03-01T04:03:27;25.17;;;14.50;;
78298;SDS011;67556;55.656;12.590;2023-03-01T04:05:56;24.13;;;14.13;;
78298;SDS011;67556;55.656;12.590;2023-03-01T04:08:25;25.13;;;14.75;;
78298;SDS011;67556;55.656;12.590;2023-03-01T04:10:53;22.08;;;13.00;;
78298;SDS011;67556;55.656;12.590;2023-03-01T04:13:24;20.95;;;12.80;;
78298;SDS011;67556;55.656;12.590;2023-03-01T04:15:51;21.63;;;13.55;;
78298;SDS011;67556;55.656;12.590;2023-03-01T04:18:19;24.27;;;14.45;;
78298;SDS011;67556;55.656;12.590;2023-03-01T04:20:46;21.00;;;12.63;;
78298;SDS011;67556;55.656;12.590;2023-03-01T04:23:14;20.77;;;13.05;;
78298;SDS011;67556;55.656;12.590;2023-03-01T04:25:47;22.23;;;14.15;;
78298;SDS011;67556;55.656;12.590;2023-03-01T04:28:20;23.40;;;14.23;;
78298;SDS011;67556;55.656;12.590;2023-03-01T04:30:47;22.30;;;14.38;;
78298;SDS011;67556;55.656;12.590;2023-03-01T04:33:15;24.33;;;15.70;;
78298;SDS011;67556;55.656;12.590;2023-03-01T04:35:41;29.67;;;17.40;;
78298;SDS011;67556;55.656;12.590;2023-03-01T04:38:08;30.98;;;19.25;;
78298;SDS011;67556;55.656;12.590;2023-03-01T04:40:35;31.88;;;18.38;;
78298;SDS011;67556;55.656;12.590;2023-03-01T04:43:03;30.85;;;18.67;;
78298;SDS011;67556;55.656;12.590;2023-03-01T04:45:31;33.75;;;18.17;;
78298;SDS011;67556;55.656;12.590;2023-03-01T04:47:59;26.75;;;16.50;;
78298;SDS011;67556;55.656;12.590;2023-03-01T04:50:26;24.33;;;14.07;;
78298;SDS011;67556;55.656;12.590;2023-03-01T04:52:53;23.08;;;13.60;;
78298;SDS011;67556;55.656;12.590;2023-03-01T04:55:24;25.10;;;14.10;;
78298;SDS011;67556;55.656;12.590;2023-03-01T04:57:51;29.23;;;16.40;;
78298;SDS011;67556;55.656;12.590;2023-03-01T05:00:20;26.77;;;16.40;;
78298;SDS011;67556;55.656;12.590;2023-03-01T05:02:49;30.20;;;16.52;;
78298;SDS011;67556;55.656;12.590;2023-03-01T05:05:19;24.48;;;15.82;;
78298;SDS011;67556;55.656;12.590;2023-03-01T05:07:50;27.02;;;15.77;;
78298;SDS011;67556;55.656;12.590;2023-03-01T05:10:18;25.05;;;14.75;;
78298;SDS011;67556;55.656;12.590;2023-03-01T05:12:45;30.10;;;16.70;;
78298;SDS011;67556;55.656;12.590;2023-03-01T05:15:12;30.88;;;17.40;;
78298;SDS011;67556;55.656;12.590;2023-03-01T05:17:41;29.95;;;16.73;;
78298;SDS011;67556;55.656;12.590;2023-03-01T05:20:08;25.83;;;15.80;;
78298;SDS011;67556;55.656;12.590;2023-03-01T05:22:35;25.15;;;16.08;;
78298;SDS011;67556;55.656;12.590;2023-03-01T05:25:03;29.88;;;17.23;;
78298;SDS011;67556;55.656;12.590;2023-03-01T05:27:30;27.92;;;16.38;;
78298;SDS011;67556;55.656;12.590;2023-03-01T05:29:56;26.23;;;16.40;;
78298;SDS011;67556;55.656;12.590;2023-03-01T05:32:23;29.23;;;17.35;;
78298;SDS011;67556;55.656;12.590;2023-03-01T05:34:51;28.73;;;16.65;;
78298;SDS011;67556;55.656;12.590;2023-03-01T05:37:20;25.92;;;16.20;;
78298;SDS011;67556;55.656;12.590;2023-03-01T05:39:46;28.75;;;15.60;;
78298;SDS011;67556;55.656;12.590;2023-03-01T05:42:15;29.23;;;15.73;;
78298;SDS011;67556;55.656;12.590;2023-03-01T05:44:42;25.00;;;15.38;;
78298;SDS011;67556;55.656;12.590;2023-03-01T05:47:08;25.38;;;15.00;;
78298;SDS011;67556;55.656;12.590;2023-03-01T05:49:34;25.55;;;15.48;;
78298;SDS011;67556;55.656;12.590;2023-03-01T05:52:02;25.40;;;15.93;;
78298;SDS011;67556;55.656;12.590;2023-03-01T05:54:29;25.35;;;16.05;;
78298;SDS011;67556;55.656;12.590;2023-03-01T05:56:55;29.25;;;16.83;;
78298;SDS011;67556;55.656;12.590;2023-03-01T05:59:22;29.35;;;16.50;;
78298;SDS011;67556;55.656;12.590;2023-03-01T06:01:48;30.63;;;17.63;;
78298;SDS011;67556;55.656;12.590;2023-03-01T06:04:16;27.98;;;16.80;;
78298;SDS011;67556;55.656;12.590;2023-03-01T06:06:42;27.20;;;16.95;;
78298;SDS011;67556;55.656;12.590;2023-03-01T06:09:10;29.90;;;17.95;;
78298;SDS011;67556;55.656;12.590;2023-03-01T06:11:37;30.02;;;17.75;;
78298;SDS011;67556;55.656;12.590;2023-03-01T06:14:03;29.55;;;17.70;;
78298;SDS011;67556;55.656;12.590;2023-03-01T06:16:31;29.60;;;17.23;;
78298;SDS011;67556;55.656;12.590;2023-03-01T06:18:57;32.58;;;17.98;;
78298;SDS011;67556;55.656;12.590;2023-03-01T06:21:24;31.05;;;17.65;;
78298;SDS011;67556;55.656;12.590;2023-03-01T06:23:51;32.80;;;17.55;;
78298;SDS011;67556;55.656;12.590;2023-03-01T06:26:19;26.88;;;17.55;;
78298;SDS011;67556;55.656;12.590;2023-03-01T06:28:45;32.85;;;17.17;;
78298;SDS011;67556;55.656;12.590;2023-03-01T06:31:12;26.90;;;16.52;;
78298;SDS011;67556;55.656;12.590;2023-03-01T06:33:38;27.63;;;17.65;;
78298;SDS011;67556;55.656;12.590;2023-03-01T06:36:05;27.45;;;16.48;;
78298;SDS011;67556;55.656;12.590;2023-03-01T06:38:33;29.40;;;16.65;;
78298;SDS011;67556;55.656;12.590;2023-03-01T06:41:00;27.95;;;15.75;;
78298;SDS011;67556;55.656;12.590;2023-03-01T06:43:28;25.67;;;16.80;;
78298;SDS011;67556;55.656;12.590;2023-03-01T06:45:55;25.10;;;16.45;;
78298;SDS011;67556;55.656;12.590;2023-03-01T06:48:22;27.42;;;16.80;;
78298;SDS011;67556;55.656;12.590;2023-03-01T06:50:48;25.13;;;15.65;;
78298;SDS011;67556;55.656;12.590;2023-03-01T06:53:15;23.38;;;15.73;;
78298;SDS011;67556;55.656;12.590;2023-03-01T06:55:41;24.00;;;14.52;;
78298;SDS011;67556;55.656;12.590;2023-03-01T06:58:08;26.92;;;13.70;;
78298;SDS011;67556;55.656;12.590;2023-03-01T07:00:36;23.08;;;13.77;;
78298;SDS011;67556;55.656;12.590;2023-03-01T07:03:05;21.38;;;13.88;;
78298;SDS011;67556;55.656;12.590;2023-03-01T07:05:33;18.35;;;12.35;;
78298;SDS011;67556;55.656;12.590;2023-03-01T07:08:00;20.17;;;11.98;;
78298;SDS011;67556;55.656;12.590;2023-03-01T07:10:27;19.77;;;13.02;;
78298;SDS011;67556;55.656;12.590;2023-03-01T07:12:55;17.58;;;11.88;;
78298;SDS011;67556;55.656;12.590;2023-03-01T07:15:22;19.75;;;11.73;;
78298;SDS011;67556;55.656;12.590;2023-03-01T07:17:50;22.85;;;11.70;;
78298;SDS011;67556;55.656;12.590;2023-03-01T07:20:17;18.70;;;11.52;;
78298;SDS011;67556;55.656;12.590;2023-03-01T07:22:48;16.60;;;11.85;;
78298;SDS011;67556;55.656;12.590;2023-03-01T07:25:15;24.85;;;12.45;;
78298;SDS011;67556;55.656;12.590;2023-03-01T07:27:42;18.67;;;10.88;;
78298;SDS011;67556;55.656;12.590;2023-03-01T07:30:09;19.17;;;11.95;;
78298;SDS011;67556;55.656;12.590;2023-03-01T07:32:36;21.30;;;11.52;;
78298;SDS011;67556;55.656;12.590;2023-03-01T07:35:05;17.77;;;10.68;;
78298;SDS011;67556;55.656;12.590;2023-03-01T07:37:32;17.63;;;11.52;;
78298;SDS011;67556;55.656;12.590;2023-03-01T07:39:58;18.17;;;10.68;;
78298;SDS011;67556;55.656;12.590;2023-03-01T07:42:25;17.40;;;10.10;;
78298;SDS011;67556;55.656;12.590;2023-03-01T07:44:54;13.88;;;8.90;;
78298;SDS011;67556;55.656;12.590;2023-03-01T07:47:20;15.80;;;10.27;;
78298;SDS011;67556;55.656;12.590;2023-03-01T07:49:47;16.48;;;9.90;;
78298;SDS011;67556;55.656;12.590;2023-03-01T07:52:14;11.55;;;7.57;;
78298;SDS011;67556;55.656;12.590;2023-03-01T07:54:42;11.50;;;6.97;;
78298;SDS011;67556;55.656;12.590;2023-03-01T07:57:09;8.90;;;6.18;;
78298;SDS011;67556;55.656;12.590;2023-03-01T07:59:37;9.45;;;6.28;;
78298;SDS011;67556;55.656;12.590;2023-03-01T08:02:03;8.75;;;6.82;;
78298;SDS011;67556;55.656;12.590;2023-03-01T08:04:29;13.82;;;6.53;;
78298;SDS011;67556;55.656;12.590;2023-03-01T08:06:57;9.10;;;6.22;;
78298;SDS011;67556;55.656;12.590;2023-03-01T08:09:26;7.80;;;5.63;;
78298;SDS011;67556;55.656;12.590;2023-03-01T08:11:52;10.98;;;6.45;;
78298;SDS011;67556;55.656;12.590;2023-03-01T08:14:21;8.63;;;6.38;;
78298;SDS011;67556;55.656;12.590;2023-03-01T08:16:49;9.77;;;6.07;;
78298;SDS011;67556;55.656;12.590;2023-03-01T08:19:15;9.35;;;6.57;;
78298;SDS011;67556;55.656;12.590;2023-03-01T08:21:42;10.45;;;7.63;;
78298;SDS011;67556;55.656;12.590;2023-03-01T08:24:09;7.90;;;6.63;;
78298;SDS011;67556;55.656;12.590;2023-03-01T08:26:37;10.52;;;5.70;;
78298;SDS011;67556;55.656;12.590;2023-03-01T08:29:04;9.70;;;6.50;;
78298;SDS011;67556;55.656;12.590;2023-03-01T08:31:32;9.60;;;6.90;;
78298;SDS011;67556;55.656;12.590;2023-03-01T08:34:02;9.35;;;6.55;;
78298;SDS011;67556;55.656;12.590;2023-03-01T08:36:32;9.90;;;6.65;;
78298;SDS011;67556;55.656;12.590;2023-03-01T08:39:02;10.63;;;6.93;;
78298;SDS011;67556;55.656;12.590;2023-03-01T08:41:29;10.82;;;7.13;;
78298;SDS011;67556;55.656;12.590;2023-03-01T08:43:57;11.43;;;8.25;;
78298;SDS011;67556;55.656;12.590;2023-03-01T08:46:25;9.85;;;5.72;;
78298;SDS011;67556;55.656;12.590;2023-03-01T08:48:52;6.45;;;4.88;;
78298;SDS011;67556;55.656;12.590;2023-03-01T08:51:19;7.78;;;4.90;;
78298;SDS011;67556;55.656;12.590;2023-03-01T08:53:47;8.23;;;5.55;;
78298;SDS011;67556;55.656;12.590;2023-03-01T08:56:14;7.45;;;5.00;;
78298;SDS011;67556;55.656;12.590;2023-03-01T08:58:43;8.25;;;4.93;;
78298;SDS011;67556;55.656;12.590;2023-03-01T09:01:12;6.95;;;4.63;;
78298;SDS011;67556;55.656;12.590;2023-03-01T09:03:40;8.43;;;5.05;;
78298;SDS011;67556;55.656;12.590;2023-03-01T09:06:08;7.28;;;4.90;;
78298;SDS011;67556;55.656;12.590;2023-03-01T09:08:35;8.00;;;5.65;;
78298;SDS011;67556;55.656;12.590;2023-03-01T09:11:03;8.73;;;5.78;;
78298;SDS011;67556;55.656;12.590;2023-03-01T09:13:30;8.50;;;5.50;;
78298;SDS011;67556;55.656;12.590;2023-03-01T09:15:57;8.13;;;5.75;;
78298;SDS011;67556;55.656;12.590;2023-03-01T09:18:25;7.32;;;5.28;;
78298;SDS011;67556;55.656;12.590;2023-03-01T09:20:52;9.50;;;6.18;;
78298;SDS011;67556;55.656;12.590;2023-03-01T09:23:20;9.73;;;5.95;;
78298;SDS011;67556;55.656;12.590;2023-03-01T09:25:47;9.15;;;5.72;;
78298;SDS011;67556;55.656;12.590;2023-03-01T09:28:13;11.23;;;6.75;;
78298;SDS011;67556;55.656;12.590;2023-03-01T09:30:40;10.63;;;6.60;;
78298;SDS011;67556;55.656;12.590;2023-03-01T09:33:07;11.25;;;7.40;;
78298;SDS011;67556;55.656;12.590;2023-03-01T09:35:41;10.40;;;7.03;;
78298;SDS011;67556;55.656;12.590;2023-03-01T09:38:11;12.60;;;8.63;;
78298;SDS011;67556;55.656;12.590;2023-03-01T09:40:41;14.13;;;9.90;;
78298;SDS011;67556;55.656;12.590;2023-03-01T09:43:14;11.70;;;8.95;;
78298;SDS011;67556;55.656;12.590;2023-03-01T09:45:44;14.80;;;8.63;;
78298;SDS011;67556;55.656;12.590;2023-03-01T09:48:12;15.52;;;9.43;;
78298;SDS011;67556;55.656;12.590;2023-03-01T09:50:45;12.13;;;9.05;;
78298;SDS011;67556;55.656;12.590;2023-03-01T09:53:13;12.50;;;7.68;;
78298;SDS011;67556;55.656;12.590;2023-03-01T09:55:43;10.23;;;7.53;;
78298;SDS011;67556;55.656;12.590;2023-03-01T09:58:23;9.88;;;6.57;;
78298;SDS011;67556;55.656;12.590;2023-03-01T10:00:56;10.82;;;6.35;;
78298;SDS011;67556;55.656;12.590;2023-03-01T10:03:28;14.77;;;7.63;;
78298;SDS011;67556;55.656;12.590;2023-03-01T10:06:03;13.15;;;7.47;;
78298;SDS011;67556;55.656;12.590;2023-03-01T10:08:36;11.75;;;6.55;;
78298;SDS011;67556;55.656;12.590;2023-03-01T10:11:14;11.73;;;7.05;;
78298;SDS011;67556;55.656;12.590;2023-03-01T10:13:46;12.85;;;6.40;;
78298;SDS011;67556;55.656;12.590;2023-03-01T10:16:20;11.25;;;6.43;;
78298;SDS011;67556;55.656;12.590;2023-03-01T10:18:53;15.43;;;8.13;;
78298;SDS011;67556;55.656;12.590;2023-03-01T10:21:23;11.25;;;6.07;;
78298;SDS011;67556;55.656;12.590;2023-03-01T10:23:53;8.48;;;5.65;;
78298;SDS011;67556;55.656;12.590;2023-03-01T10:26:24;9.40;;;6.10;;
78298;SDS011;67556;55.656;12.590;2023-03-01T10:29:03;7.55;;;5.40;;
78298;SDS011;67556;55.656;12.590;2023-03-01T10:31:36;9.60;;;5.55;;
78298;SDS011;67556;55.656;12.590;2023-03-01T10:34:08;8.18;;;5.75;;
78298;SDS011;67556;55.656;12.590;2023-03-01T10:36:40;6.97;;;5.18;;
78298;SDS011;67556;55.656;12.590;2023-03-01T10:39:12;8.18;;;5.65;;
78298;SDS011;67556;55.656;12.590;2023-03-01T10:41:57;7.25;;;5.63;;
78298;SDS011;67556;55.656;12.590;2023-03-01T10:44:35;9.35;;;5.78;;
78298;SDS011;67556;55.656;12.590;2023-03-01T10:47:16;7.57;;;5.65;;
78298;SDS011;67556;55.656;12.590;2023-03-01T10:52:57;9.55;;;6.00;;
78298;SDS011;67556;55.656;12.590;2023-03-01T10:55:27;8.50;;;5.53;;
78298;SDS011;67556;55.656;12.590;2023-03-01T10:58:07;9.70;;;5.72;;
78298;SDS011;67556;55.656;12.590;2023-03-01T11:00:46;11.52;;;5.50;;
78298;SDS011;67556;55.656;12.590;2023-03-01T11:03:17;9.38;;;5.45;;
78298;SDS011;67556;55.656;12.590;2023-03-01T11:05:52;9.82;;;5.97;;
78298;SDS011;67556;55.656;12.590;2023-03-01T11:08:45;8.48;;;5.90;;
78298;SDS011;67556;55.656;12.590;2023-03-01T11:11:18;8.40;;;5.22;;
78298;SDS011;67556;55.656;12.590;2023-03-01T11:13:50;11.27;;;6.47;;
78298;SDS011;67556;55.656;12.590;2023-03-01T11:16:26;11.82;;;6.03;;
78298;SDS011;67556;55.656;12.590;2023-03-01T11:18:58;8.57;;;5.32;;
78298;SDS011;67556;55.656;12.590;2023-03-01T11:21:28;12.20;;;5.90;;
78298;SDS011;67556;55.656;12.590;2023-03-01T11:24:03;10.10;;;5.22;;
78298;SDS011;67556;55.656;12.590;2023-03-01T11:26:37;7.72;;;5.30;;
78298;SDS011;67556;55.656;12.590;2023-03-01T11:29:16;7.30;;;5.10;;
78298;SDS011;67556;55.656;12.590;2023-03-01T11:31:48;7.72;;;4.90;;
78298;SDS011;67556;55.656;12.590;2023-03-01T11:34:17;9.65;;;6.07;;
78298;SDS011;67556;55.656;12.590;2023-03-01T11:36:51;11.25;;;6.38;;
78298;SDS011;67556;55.656;12.590;2023-03-01T11:39:24;10.95;;;6.35;;
78298;SDS011;67556;55.656;12.590;2023-03-01T11:42:00;9.23;;;6.30;;
78298;SDS011;67556;55.656;12.590;2023-03-01T11:44:33;12.27;;;6.68;;
78298;SDS011;67556;55.656;12.590;2023-03-01T11:47:08;13.02;;;6.35;;
78298;SDS011;67556;55.656;12.590;2023-03-01T11:49:56;9.45;;;6.60;;
78298;SDS011;67556;55.656;12.590;2023-03-01T11:52:36;12.90;;;5.65;;
78298;SDS011;67556;55.656;12.590;2023-03-01T11:55:21;11.20;;;5.50;;
78298;SDS011;67556;55.656;12.590;2023-03-01T11:58:00;7.50;;;5.15;;
78298;SDS011;67556;55.656;12.590;2023-03-01T12:00:42;6.30;;;4.43;;
78298;SDS011;67556;55.656;12.590;2023-03-01T12:03:25;9.18;;;4.65;;
78298;SDS011;67556;55.656;12.590;2023-03-01T12:06:09;4.75;;;3.13;;
78298;SDS011;67556;55.656;12.590;2023-03-01T12:08:50;3.95;;;3.10;;
78298;SDS011;67556;55.656;12.590;2023-03-01T12:11:32;4.65;;;2.72;;
78298;SDS011;67556;55.656;12.590;2023-03-01T12:14:20;10.93;;;5.25;;
78298;SDS011;67556;55.656;12.590;2023-03-01T12:17:04;11.55;;;4.60;;
78298;SDS011;67556;55.656;12.590;2023-03-01T12:19:45;7.72;;;3.85;;
78298;SDS011;67556;55.656;12.590;2023-03-01T12:22:28;9.02;;;3.97;;
78298;SDS011;67556;55.656;12.590;2023-03-01T12:30:57;5.53;;;3.42;;
78298;SDS011;67556;55.656;12.590;2023-03-01T12:33:37;11.65;;;3.95;;
78298;SDS011;67556;55.656;12.590;2023-03-01T12:36:30;7.30;;;3.80;;
78298;SDS011;67556;55.656;12.590;2023-03-01T12:39:15;7.18;;;3.63;;
78298;SDS011;67556;55.656;12.590;2023-03-01T12:41:52;9.57;;;4.55;;
78298;SDS011;67556;55.656;12.590;2023-03-01T12:47:26;4.30;;;2.60;;
78298;SDS011;67556;55.656;12.590;2023-03-01T12:50:11;5.93;;;3.05;;
78298;SDS011;67556;55.656;12.590;2023-03-01T12:52:44;3.60;;;2.20;;
78298;SDS011;67556;55.656;12.590;2023-03-01T12:55:18;3.78;;;2.42;;
78298;SDS011;67556;55.656;12.590;2023-03-01T12:57:53;5.90;;;3.17;;
78298;SDS011;67556;55.656;12.590;2023-03-01T13:00:28;5.25;;;3.05;;
78298;SDS011;67556;55.656;12.590;2023-03-01T13:03:02;6.43;;;3.72;;
78298;SDS011;67556;55.656;12.590;2023-03-01T13:05:42;5.65;;;3.10;;
78298;SDS011;67556;55.656;12.590;2023-03-01T13:08:24;4.43;;;2.75;;
78298;SDS011;67556;55.656;12.590;2023-03-01T13:10:59;4.05;;;3.20;;
78298;SDS011;67556;55.656;12.590;2023-03-01T13:13:28;3.58;;;2.30;;
78298;SDS011;67556;55.656;12.590;2023-03-01T13:15:56;4.57;;;2.60;;
78298;SDS011;67556;55.656;12.590;2023-03-01T13:18:39;4.57;;;2.35;;
78298;SDS011;67556;55.656;12.590;2023-03-01T13:21:06;3.78;;;2.47;;
78298;SDS011;67556;55.656;12.590;2023-03-01T13:23:35;3.83;;;1.90;;
78298;SDS011;67556;55.656;12.590;2023-03-01T13:26:13;3.60;;;2.70;;
78298;SDS011;67556;55.656;12.590;2023-03-01T13:28:49;3.72;;;2.30;;
78298;SDS011;67556;55.656;12.590;2023-03-01T13:37:27;2.35;;;1.67;;
78298;SDS011;67556;55.656;12.590;2023-03-01T13:39:57;2.92;;;1.70;;
78298;SDS011;67556;55.656;12.590;2023-03-01T13:42:37;4.85;;;2.10;;
78298;SDS011;67556;55.656;12.590;2023-03-01T13:47:44;2.90;;;1.40;;
78298;SDS011;67556;55.656;12.590;2023-03-01T13:50:19;2.50;;;1.33;;
78298;SDS011;67556;55.656;12.590;2023-03-01T13:52:50;3.20;;;1.30;;
78298;SDS011;67556;55.656;12.590;2023-03-01T13:55:21;2.15;;;1.40;;
78298;SDS011;67556;55.656;12.590;2023-03-01T13:57:53;1.52;;;1.20;;
78298;SDS011;67556;55.656;12.590;2023-03-01T14:00:26;2.15;;;1.55;;
78298;SDS011;67556;55.656;12.590;2023-03-01T14:03:10;2.00;;;1.25;;
78298;SDS011;67556;55.656;12.590;2023-03-01T14:05:41;1.45;;;1.23;;
78298;SDS011;67556;55.656;12.590;2023-03-01T14:08:19;2.30;;;1.52;;
78298;SDS011;67556;55.656;12.590;2023-03-01T14:10:54;3.80;;;1.55;;
78298;SDS011;67556;55.656;12.590;2023-03-01T14:14:00;1.92;;;1.30;;
78298;SDS011;67556;55.656;12.590;2023-03-01T14:16:39;4.22;;;1.55;;
78298;SDS011;67556;55.656;12.590;2023-03-01T14:19:15;1.65;;;1.27;;
78298;SDS011;67556;55.656;12.590;2023-03-01T14:21:47;2.10;;;1.45;;
78298;SDS011;67556;55.656;12.590;2023-03-01T14:24:16;2.38;;;1.50;;
78298;SDS011;67556;55.656;12.590;2023-03-01T14:26:44;2.90;;;1.60;;
78298;SDS011;67556;55.656;12.590;2023-03-01T14:29:24;2.10;;;1.30;;
78298;SDS011;67556;55.656;12.590;2023-03-01T14:31:51;1.88;;;1.33;;
78298;SDS011;67556;55.656;12.590;2023-03-01T14:34:20;1.90;;;1.45;;
78298;SDS011;67556;55.656;12.590;2023-03-01T14:36:49;1.92;;;1.30;;
78298;SDS011;67556;55.656;12.590;2023-03-01T14:39:16;1.83;;;1.25;;
78298;SDS011;67556;55.656;12.590;2023-03-01T14:41:45;2.15;;;1.50;;
78298;SDS011;67556;55.656;12.590;2023-03-01T14:44:12;1.73;;;1.20;;
78298;SDS011;67556;55.656;12.590;2023-03-01T14:46:44;1.58;;;1.25;;
78298;SDS011;67556;55.656;12.590;2023-03-01T14:49:12;1.77;;;1.20;;
78298;SDS011;67556;55.656;12.590;2023-03-01T14:51:42;1.85;;;1.27;;
78298;SDS011;67556;55.656;12.590;2023-03-01T14:54:21;3.95;;;2.60;;
78298;SDS011;67556;55.656;12.590;2023-03-01T14:56:52;2.85;;;1.63;;
78298;SDS011;67556;55.656;12.590;2023-03-01T14:59:20;2.72;;;1.60;;
78298;SDS011;67556;55.656;12.590;2023-03-01T15:01:48;2.67;;;1.58;;
78298;SDS011;67556;55.656;12.590;2023-03-01T15:04:15;2.72;;;1.50;;
78298;SDS011;67556;55.656;12.590;2023-03-01T15:06:43;3.15;;;1.70;;